Time;durP1;ratioP1;P1;durP2;ratioP2;P2;SDS_P1;SDS_P2;PMS_P1;PMS_P2;Temp;Humidity;BMP_temperature;BMP_pressure;BME280_temperature;BME280_humidity;BME280_pressure;Samples;Min_cycle;Max_cycle;Signal;HPM_P1;HPM_P2
2022/03/20 00:00:56;;;;;;;17.30;6.68;;;;;;;21.34;8.81;100571.03;5090839;28;20033;-76
2022/03/20 00:03:24;;;;;;;17.15;7.38;;;;;;;21.47;8.99;100572.59;5100573;28;20038;-76
2022/03/20 00:05:51;;;;;;;13.35;6.03;;;;;;;21.36;8.81;100571.50;5092724;28;21890;-76
2022/03/20 00:08:17;;;;;;;26.35;11.10;;;;;;;21.43;9.03;100577.28;5102315;28;20032;-76
2022/03/20 00:10:49;;;;;;;20.90;8.50;;;;;;;21.39;8.86;100575.56;5099748;28;20028;-76
2022/03/20 00:13:18;;;;;;;18.88;8.05;;;;;;;21.32;9.08;100574.19;5088943;28;20032;-76
2022/03/20 00:15:46;;;;;;;15.68;6.55;;;;;;;21.03;9.65;100568.91;5099719;28;20488;-76
2022/03/20 00:18:15;;;;;;;17.02;7.05;;;;;;;20.68;9.86;100562.22;5093296;28;20036;-76
2022/03/20 00:20:46;;;;;;;13.77;6.55;;;;;;;20.86;9.61;100569.19;5100445;28;20050;-76
2022/03/20 00:23:13;;;;;;;16.50;6.63;;;;;;;21.04;9.51;100569.72;5097509;28;20063;-76
2022/03/20 00:25:42;;;;;;;14.20;5.72;;;;;;;21.11;9.24;100568.00;5098565;28;20126;-76
2022/03/20 00:28:09;;;;;;;20.98;6.88;;;;;;;21.04;9.31;100564.13;5100361;28;20036;-76
2022/03/20 00:30:36;;;;;;;22.85;8.07;;;;;;;20.91;9.31;100562.56;5094982;28;20105;-76
2022/03/20 00:33:03;;;;;;;21.30;8.90;;;;;;;20.88;9.35;100568.84;5095663;28;20485;-76
2022/03/20 00:35:30;;;;;;;26.77;9.70;;;;;;;20.89;9.39;100570.44;5102006;28;20084;-76
2022/03/20 00:37:57;;;;;;;27.05;10.18;;;;;;;21.04;9.15;100572.50;5095198;28;20651;-76
2022/03/20 00:40:24;;;;;;;19.70;8.60;;;;;;;21.05;9.48;100568.59;5096729;28;20027;-76
2022/03/20 00:42:53;;;;;;;27.17;11.02;;;;;;;21.17;9.36;100583.31;5090802;28;20040;-76
2022/03/20 00:45:20;;;;;;;31.27;12.02;;;;;;;21.14;9.33;100583.22;5084211;28;20039;-76
2022/03/20 00:47:47;;;;;;;27.42;10.63;;;;;;;21.01;9.54;100579.63;5092758;28;20122;-76
2022/03/20 00:50:14;;;;;;;31.15;11.48;;;;;;;20.72;9.57;100579.91;5081672;28;20481;-76
2022/03/20 00:52:40;;;;;;;28.95;12.88;;;;;;;20.74;9.56;100579.56;5099729;28;20074;-76
2022/03/20 00:55:06;;;;;;;34.03;12.00;;;;;;;20.60;9.68;100577.97;5098454;28;20504;-76
2022/03/20 00:57:32;;;;;;;27.27;10.02;;;;;;;20.74;9.50;100577.59;5090940;28;20394;-76
2022/03/20 00:59:59;;;;;;;25.40;10.98;;;;;;;21.05;9.29;100576.97;5091170;28;20055;-76
2022/03/20 01:02:25;;;;;;;27.52;10.52;;;;;;;21.18;9.35;100579.38;5107339;28;20024;-76
2022/03/20 01:04:51;;;;;;;33.70;11.90;;;;;;;20.92;9.58;100572.53;5099912;28;20038;-76
2022/03/20 01:07:17;;;;;;;26.48;10.75;;;;;;;20.94;9.56;100576.59;5094823;28;20370;-76
2022/03/20 01:09:43;;;;;;;38.75;14.57;;;;;;;21.04;9.44;100578.94;5092869;28;20416;-76
2022/03/20 01:12:10;;;;;;;30.02;12.43;;;;;;;21.07;9.57;100578.25;5099231;28;20034;-76
2022/03/20 01:14:37;;;;;;;29.20;11.23;;;;;;;20.85;9.76;100569.53;5098464;28;20036;-76
2022/03/20 01:17:04;;;;;;;24.52;10.25;;;;;;;20.73;10.26;100575.13;5098755;28;20077;-76
2022/03/20 01:19:32;;;;;;;26.40;11.27;;;;;;;20.80;10.01;100580.94;5086449;28;20035;-76
2022/03/20 01:21:59;;;;;;;32.33;11.40;;;;;;;20.97;9.77;100586.25;5089364;28;20031;-76
2022/03/20 01:24:27;;;;;;;29.10;11.45;;;;;;;21.00;9.88;100580.78;5080978;28;20485;-76
2022/03/20 01:26:54;;;;;;;21.70;9.50;;;;;;;20.32;10.24;100579.81;5086333;28;20101;-76
2022/03/20 01:29:20;;;;;;;28.17;10.65;;;;;;;20.21;10.05;100581.38;5085804;28;20135;-76
2022/03/20 01:31:46;;;;;;;26.50;11.23;;;;;;;19.99;10.13;100576.28;5082667;28;21502;-76
2022/03/20 01:34:13;;;;;;;30.13;11.23;;;;;;;20.23;10.08;100587.50;5068885;28;20027;-76
2022/03/20 01:36:39;;;;;;;32.45;11.73;;;;;;;20.38;10.03;100583.19;5063238;28;20033;-76
2022/03/20 01:39:06;;;;;;;41.83;16.23;;;;;;;20.42;9.96;100587.72;5085548;28;20047;-76
2022/03/20 01:41:32;;;;;;;31.70;12.32;;;;;;;20.45;9.95;100575.84;5085741;28;20027;-76
2022/03/20 01:44:00;;;;;;;42.40;16.65;;;;;;;20.49;10.13;100579.56;5079397;28;20040;-76
2022/03/20 01:46:29;;;;;;;37.63;15.43;;;;;;;20.51;10.02;100576.44;5081887;28;20028;-76
2022/03/20 01:48:56;;;;;;;36.05;14.38;;;;;;;20.53;9.92;100565.75;5083541;28;20040;-76
2022/03/20 01:52:10;;;;;;;34.20;13.82;;;;;;;19.47;11.14;100572.41;5080452;28;20060;-76
2022/03/20 01:54:11;;;;;;;42.63;15.43;;;;;;;19.72;10.89;100563.00;5085703;28;20201;-76
2022/03/20 01:56:42;;;;;;;41.83;15.57;;;;;;;20.17;10.33;100568.50;5083308;28;20107;-76
2022/03/20 01:59:08;;;;;;;42.13;16.02;;;;;;;20.08;10.68;100560.25;5068682;28;20122;-76
2022/03/20 02:01:34;;;;;;;37.35;13.98;;;;;;;20.21;10.33;100556.28;5085578;28;20047;-76
2022/03/20 02:04:00;;;;;;;46.22;16.98;;;;;;;20.09;10.06;100561.06;5089486;28;20040;-75
2022/03/20 02:06:26;;;;;;;37.38;14.80;;;;;;;19.87;10.10;100573.47;5094162;28;20519;-75
2022/03/20 02:08:56;;;;;;;43.67;15.43;;;;;;;20.29;10.04;100560.97;5089250;28;20028;-75
2022/03/20 02:11:26;;;;;;;47.03;14.82;;;;;;;20.49;10.25;100562.03;5079898;28;20440;-75
2022/03/20 02:13:53;;;;;;;33.70;13.68;;;;;;;19.73;10.74;100565.41;5084262;28;20028;-75
2022/03/20 02:16:19;;;;;;;38.58;14.23;;;;;;;19.33;10.93;100567.09;5086056;28;20036;-75
2022/03/20 02:18:48;;;;;;;34.67;14.48;;;;;;;19.09;10.99;100565.03;5083587;28;20024;-75
2022/03/20 02:21:15;;;;;;;40.45;15.82;;;;;;;19.07;11.07;100570.13;5073723;28;20133;-75
2022/03/20 02:23:43;;;;;;;42.38;17.00;;;;;;;19.56;10.66;100560.03;5085508;28;20477;-75
2022/03/20 02:26:09;;;;;;;38.47;14.50;;;;;;;19.53;10.60;100557.94;5084185;28;20118;-76
2022/03/20 02:28:36;;;;;;;32.90;13.95;;;;;;;18.85;11.20;100547.38;5085012;28;20033;-75
2022/03/20 02:31:02;;;;;;;40.08;17.55;;;;;;;18.90;11.04;100549.97;5083439;28;20050;-75
2022/03/20 02:33:29;;;;;;;40.85;16.60;;;;;;;19.37;10.57;100547.78;5084349;28;20040;-75
2022/03/20 02:35:56;;;;;;;38.42;16.40;;;;;;;19.95;10.26;100542.66;5085453;28;20035;-75
2022/03/20 02:38:22;;;;;;;55.92;21.05;;;;;;;20.26;10.11;100544.13;5089641;28;20115;-75
2022/03/20 02:40:54;;;;;;;48.70;20.10;;;;;;;20.02;10.39;100548.50;5088123;28;20436;-75
2022/03/20 02:43:20;;;;;;;42.40;16.83;;;;;;;19.70;10.72;100543.81;5078647;28;20032;-75
2022/03/20 02:45:49;;;;;;;43.55;17.23;;;;;;;19.76;10.63;100545.22;5066150;28;20128;-75
2022/03/20 02:48:15;;;;;;;40.15;15.88;;;;;;;19.97;10.50;100551.53;5085820;28;20362;-75
2022/03/20 02:50:41;;;;;;;35.80;14.75;;;;;;;19.27;10.96;100547.03;5082593;28;20028;-75
2022/03/20 02:53:13;;;;;;;37.90;15.25;;;;;;;18.61;11.25;100556.38;5090435;28;20064;-75
2022/03/20 02:55:41;;;;;;;32.83;14.55;;;;;;;18.27;11.86;100562.97;5082452;28;20120;-75
2022/03/20 02:58:10;;;;;;;40.20;15.75;;;;;;;18.80;11.22;100558.72;5083684;28;20083;-75
2022/03/20 03:00:37;;;;;;;35.17;14.68;;;;;;;19.29;10.97;100553.06;5077694;28;20032;-75
2022/03/20 03:03:05;;;;;;;33.92;15.13;;;;;;;18.85;11.22;100558.50;5083022;28;20043;-75
2022/03/20 03:05:32;;;;;;;38.78;15.02;;;;;;;18.72;11.54;100556.81;5071498;28;20032;-75
2022/03/20 03:10:55;;;;;;;37.10;15.68;;;;;;;19.47;10.90;100550.94;5083523;28;20051;-75
2022/03/20 03:13:22;;;;;;;34.20;14.18;;;;;;;19.78;10.56;100550.44;5080662;28;20039;-75
2022/03/20 03:15:50;;;;;;;38.60;15.25;;;;;;;20.17;10.09;100560.13;5080023;28;20034;-75
2022/03/20 03:18:16;;;;;;;37.17;15.57;;;;;;;20.08;10.49;100551.88;5083616;28;20039;-75
2022/03/20 03:20:43;;;;;;;36.85;15.45;;;;;;;19.85;10.41;100550.69;5083668;28;20051;-75
2022/03/20 03:23:09;;;;;;;36.55;15.48;;;;;;;20.13;10.29;100551.66;5080477;28;20032;-75
2022/03/20 03:25:39;;;;;;;33.30;14.82;;;;;;;20.43;10.01;100558.66;5069696;28;20463;-75
2022/03/20 03:28:06;;;;;;;39.95;17.13;;;;;;;20.31;10.18;100563.41;5080860;28;20044;-75
2022/03/20 03:30:32;;;;;;;36.58;15.27;;;;;;;20.29;10.04;100568.53;5081971;28;20063;-75
2022/03/20 03:32:58;;;;;;;40.78;15.85;;;;;;;20.20;10.25;100562.22;5084614;28;20389;-75
2022/03/20 03:35:42;;;;;;;40.72;15.88;;;;;;;20.37;10.29;100564.81;5064219;28;20028;-75
2022/03/20 03:38:13;;;;;;;47.15;19.05;;;;;;;20.34;10.01;100562.72;5083796;28;20077;-75
2022/03/20 03:40:41;;;;;;;43.53;16.88;;;;;;;20.12;10.20;100563.16;5083397;28;20040;-75
2022/03/20 03:43:07;;;;;;;34.50;14.20;;;;;;;19.65;10.54;100563.53;5092518;28;20024;-75
2022/03/20 03:45:34;;;;;;;40.45;15.38;;;;;;;18.62;11.47;100564.38;5093414;28;20040;-75
2022/03/20 03:48:01;;;;;;;43.05;18.13;;;;;;;17.94;12.10;100564.72;5088167;28;20020;-75
2022/03/20 03:50:28;;;;;;;40.85;17.05;;;;;;;18.13;11.83;100567.94;5088966;28;20427;-74
2022/03/20 03:52:54;;;;;;;44.40;16.92;;;;;;;18.05;11.85;100562.38;5090084;28;20103;-74
2022/03/20 03:55:20;;;;;;;45.80;17.75;;;;;;;18.33;11.63;100571.91;5086297;28;20032;-73
2022/03/20 03:57:49;;;;;;;45.92;18.55;;;;;;;18.42;11.60;100573.50;5092787;28;20491;-74
2022/03/20 04:00:19;;;;;;;49.03;17.85;;;;;;;18.24;11.62;100574.75;5090268;28;20040;-74
2022/03/20 04:02:46;;;;;;;40.88;16.25;;;;;;;18.33;11.84;100572.72;5085888;28;20029;-74
2022/03/20 04:05:15;;;;;;;43.25;16.90;;;;;;;18.12;12.04;100585.75;5094110;28;20062;-75
2022/03/20 04:07:41;;;;;;;53.38;20.13;;;;;;;17.79;12.27;100582.75;5087533;28;20016;-74
2022/03/20 04:10:09;;;;;;;52.22;18.10;;;;;;;17.61;12.45;100574.78;5087313;28;20169;-75
2022/03/20 04:12:40;;;;;;;43.90;18.60;;;;;;;17.66;12.24;100580.19;5067925;28;20535;-75
2022/03/20 04:15:08;;;;;;;49.25;20.05;;;;;;;17.38;12.46;100584.44;5063436;28;20508;-74
2022/03/20 04:17:35;;;;;;;45.55;18.02;;;;;;;17.77;12.30;100585.06;5091247;28;20039;-74
2022/03/20 04:20:02;;;;;;;43.55;17.02;;;;;;;17.94;12.13;100582.22;5083884;28;20404;-74
2022/03/20 04:22:29;;;;;;;47.42;19.63;;;;;;;18.37;11.65;100584.81;5085086;28;20035;-74
2022/03/20 04:24:56;;;;;;;49.78;19.23;;;;;;;18.63;11.69;100584.69;5096490;28;20039;-74
2022/03/20 04:27:22;;;;;;;49.10;19.33;;;;;;;17.27;12.52;100586.72;5069803;28;20094;-73
2022/03/20 04:29:49;;;;;;;52.78;20.20;;;;;;;17.65;12.58;100586.88;5063545;28;20378;-74
2022/03/20 04:32:15;;;;;;;48.13;18.65;;;;;;;18.14;12.04;100591.78;5064758;28;20051;-74
2022/03/20 04:34:42;;;;;;;48.35;18.33;;;;;;;18.21;11.82;100594.88;5058964;28;20036;-75
2022/03/20 04:37:10;;;;;;;43.92;18.38;;;;;;;18.81;11.57;100596.53;5071017;28;20351;-74
2022/03/20 04:39:37;;;;;;;46.17;18.20;;;;;;;19.38;11.12;100585.59;5061169;28;20482;-74
2022/03/20 04:42:04;;;;;;;42.67;18.35;;;;;;;19.51;10.95;100590.09;5063654;28;20059;-74
2022/03/20 04:44:31;;;;;;;42.88;17.02;;;;;;;19.11;11.48;100600.91;5070134;28;20036;-75
2022/03/20 04:46:57;;;;;;;40.08;16.58;;;;;;;19.09;11.16;100600.44;5064740;28;20020;-74
2022/03/20 05:00:24;;;;;;;46.65;19.80;;;;;;;17.74;12.33;100602.38;5063925;28;20102;-74
2022/03/20 05:02:50;;;;;;;46.53;18.65;;;;;;;17.73;12.45;100597.97;5062042;28;20039;-74
2022/03/20 05:05:17;;;;;;;50.72;19.13;;;;;;;17.02;13.15;100602.25;5067782;28;20398;-74
2022/03/20 05:07:43;;;;;;;43.47;19.25;;;;;;;18.11;12.32;100600.78;5064996;28;20020;-74
2022/03/20 05:15:40;;;;;;;48.95;19.77;;;;;;;19.34;11.58;100602.19;5068846;28;20710;-75
2022/03/20 05:18:09;;;;;;;49.95;18.15;;;;;;;19.12;11.61;100611.69;5069052;28;20036;-75
2022/03/20 05:20:35;;;;;;;43.53;16.73;;;;;;;18.54;11.95;100611.75;5059286;28;20970;-75
2022/03/20 05:23:02;;;;;;;41.70;17.08;;;;;;;17.42;12.56;100622.34;5075051;28;20047;-75
2022/03/20 05:25:29;;;;;;;41.90;16.52;;;;;;;17.84;12.79;100631.78;5057946;28;21865;-75
2022/03/20 05:27:56;;;;;;;43.38;17.77;;;;;;;18.59;12.01;100625.47;5082259;28;20527;-74
2022/03/20 05:30:23;;;;;;;51.20;18.75;;;;;;;19.64;11.46;100620.44;5084550;28;20028;-75
2022/03/20 05:32:49;;;;;;;49.78;18.73;;;;;;;19.82;11.32;100624.69;5083306;28;20047;-75
2022/03/20 05:35:16;;;;;;;40.88;16.20;;;;;;;20.52;10.85;100623.53;5073487;28;20122;-74
2022/03/20 05:37:43;;;;;;;41.53;16.70;;;;;;;21.00;10.94;100627.47;5081575;28;20028;-74
2022/03/20 05:40:10;;;;;;;39.00;16.58;;;;;;;20.92;10.85;100622.81;5083473;28;20036;-73
2022/03/20 05:42:37;;;;;;;53.03;19.52;;;;;;;20.89;11.11;100617.91;5085530;28;20033;-73
2022/03/20 05:45:06;;;;;;;43.35;19.15;;;;;;;19.92;11.96;100638.19;5082040;28;20039;-74
2022/03/20 05:47:33;;;;;;;42.13;17.45;;;;;;;19.66;11.49;100631.22;5088757;28;20039;-74
2022/03/20 05:50:03;;;;;;;42.78;18.05;;;;;;;19.68;11.60;100632.53;5068494;28;20171;-75
2022/03/20 05:52:32;;;;;;;46.60;19.97;;;;;;;20.15;11.76;100634.97;5085452;28;20032;-75
2022/03/20 05:54:59;;;;;;;47.95;19.33;;;;;;;20.74;11.13;100633.41;5081804;28;20019;-75
2022/03/20 06:00:16;;;;;;;50.42;18.98;;;;;;;20.64;11.38;100645.06;5081802;28;20051;-75
2022/03/20 06:02:43;;;;;;;42.85;18.23;;;;;;;20.66;11.64;100648.31;5081886;28;20032;-75
2022/03/20 06:05:11;;;;;;;39.33;17.27;;;;;;;20.19;11.58;100641.47;5079248;28;20035;-75
2022/03/20 06:07:44;;;;;;;40.40;17.08;;;;;;;19.61;12.25;100646.19;5084735;28;20084;-75
2022/03/20 06:10:18;;;;;;;37.92;17.85;;;;;;;20.24;11.80;100644.06;5084750;28;20036;-75
2022/03/20 06:12:48;;;;;;;44.30;18.85;;;;;;;20.61;11.68;100649.34;5090409;28;20029;-75
2022/03/20 06:15:14;;;;;;;39.22;18.83;;;;;;;20.08;11.81;100649.50;5084362;28;20020;-75
2022/03/20 06:17:44;;;;;;;40.80;18.00;;;;;;;20.37;11.83;100654.13;5085864;28;20039;-75
2022/03/20 06:20:13;;;;;;;41.05;19.33;;;;;;;20.31;12.00;100656.31;5068846;28;20051;-75
2022/03/20 06:22:39;;;;;;;44.85;18.08;;;;;;;20.64;11.33;100662.63;5080447;28;20063;-75
2022/03/20 06:25:09;;;;;;;38.35;17.02;;;;;;;20.49;11.81;100659.72;5088455;28;20032;-75
2022/03/20 06:27:41;;;;;;;36.15;16.00;;;;;;;21.10;11.44;100655.75;5086789;28;20397;-75
2022/03/20 06:30:09;;;;;;;41.97;20.08;;;;;;;18.96;12.38;100671.09;5077173;28;20517;-76
2022/03/20 06:32:36;;;;;;;37.13;16.35;;;;;;;18.70;13.20;100670.41;5082253;28;20025;-76
2022/03/20 06:35:05;;;;;;;32.80;14.52;;;;;;;19.86;12.43;100664.63;5080745;28;20131;-76
2022/03/20 06:37:36;;;;;;;34.60;15.85;;;;;;;20.61;11.89;100674.47;5079117;28;20020;-76
2022/03/20 06:40:03;;;;;;;32.55;14.40;;;;;;;21.46;11.59;100659.63;5082230;28;20031;-76
2022/03/20 06:42:30;;;;;;;39.33;17.40;;;;;;;21.48;11.74;100674.88;5078349;28;20094;-76
2022/03/20 06:44:59;;;;;;;38.70;18.80;;;;;;;20.33;12.93;100673.50;5082435;28;20115;-76
2022/03/20 06:47:26;;;;;;;34.38;16.00;;;;;;;21.61;11.51;100672.84;5065720;28;20062;-76
2022/03/20 06:49:53;;;;;;;38.58;16.70;;;;;;;22.40;11.45;100681.09;5075981;28;20043;-76
2022/03/20 06:52:22;;;;;;;32.33;15.25;;;;;;;22.83;10.62;100683.00;5077345;28;20382;-76
2022/03/20 06:54:49;;;;;;;36.92;16.70;;;;;;;23.04;10.74;100677.09;5083412;28;20029;-75
2022/03/20 06:57:20;;;;;;;34.50;15.18;;;;;;;23.51;10.21;100685.41;5080414;28;20035;-75
2022/03/20 06:59:46;;;;;;;27.27;14.73;;;;;;;23.73;9.96;100687.50;5081049;28;20119;-76
2022/03/20 07:02:12;;;;;;;26.50;13.32;;;;;;;23.95;9.99;100692.34;5082327;28;20027;-76
2022/03/20 07:04:39;;;;;;;28.27;14.35;;;;;;;24.08;9.89;100701.44;5082092;28;20460;-76
2022/03/20 07:07:05;;;;;;;29.05;13.27;;;;;;;22.90;10.58;100699.97;5081133;28;20099;-76
2022/03/20 07:09:34;;;;;;;32.67;16.70;;;;;;;21.11;11.80;100701.25;5081272;28;20032;-76
2022/03/20 07:12:00;;;;;;;37.28;18.17;;;;;;;18.88;13.43;100719.28;5064707;28;20481;-76
2022/03/20 07:14:27;;;;;;;39.03;17.92;;;;;;;17.53;14.77;100717.25;5081357;28;20039;-76
2022/03/20 07:16:53;;;;;;;45.15;20.38;;;;;;;16.10;16.02;100726.38;5089999;28;20059;-76
2022/03/20 07:19:19;;;;;;;38.92;18.48;;;;;;;15.02;18.20;100731.09;5088653;28;20029;-76
2022/03/20 07:21:45;;;;;;;40.80;21.25;;;;;;;14.38;18.40;100730.16;5090292;28;20056;-76
2022/03/20 07:24:11;;;;;;;44.08;21.67;;;;;;;14.62;18.44;100735.53;5088638;28;20092;-76
2022/03/20 07:29:29;;;;;;;51.35;23.02;;;;;;;14.93;18.32;100733.78;5094764;28;20570;-76
2022/03/20 07:31:57;;;;;;;50.47;23.23;;;;;;;15.03;17.74;100739.09;5077098;28;20060;-76
2022/03/20 07:34:24;;;;;;;38.10;18.98;;;;;;;15.60;17.71;100739.50;5091159;28;20067;-76
2022/03/20 07:36:53;;;;;;;49.95;23.13;;;;;;;14.88;18.04;100738.59;5084946;28;20024;-76
2022/03/20 07:39:19;;;;;;;47.38;22.60;;;;;;;15.01;18.03;100734.97;5092742;28;20047;-76
2022/03/20 07:41:45;;;;;;;49.72;23.33;;;;;;;15.11;18.08;100737.53;5084604;28;20513;-76
2022/03/20 07:44:11;;;;;;;42.97;22.20;;;;;;;15.96;17.34;100731.16;5091800;28;20031;-76
2022/03/20 07:46:40;;;;;;;53.28;24.33;;;;;;;15.93;17.02;100732.59;5090011;28;20383;-75
2022/03/20 07:49:07;;;;;;;39.72;19.88;;;;;;;17.86;15.56;100726.75;5095668;28;20405;-76
2022/03/20 07:51:34;;;;;;;44.33;21.63;;;;;;;17.28;15.70;100739.13;5090599;28;20043;-76
2022/03/20 07:54:01;;;;;;;45.75;21.30;;;;;;;16.89;16.13;100741.13;5089917;28;20084;-76
2022/03/20 07:56:30;;;;;;;30.92;17.02;;;;;;;20.97;13.23;100726.72;5089180;28;20024;-76
2022/03/20 07:58:56;;;;;;;27.60;14.25;;;;;;;22.57;11.40;100731.13;5083858;28;20032;-76
2022/03/20 08:01:22;;;;;;;30.02;13.82;;;;;;;23.44;10.50;100727.31;5091791;28;20032;-77
2022/03/20 08:03:49;;;;;;;41.28;18.02;;;;;;;21.29;12.01;100741.75;5066334;28;20032;-77
2022/03/20 08:06:15;;;;;;;24.80;12.70;;;;;;;22.13;11.45;100737.91;5089935;28;20064;-76
2022/03/20 08:08:43;;;;;;;33.20;16.90;;;;;;;19.97;13.11;100743.13;5071073;28;20036;-76
2022/03/20 08:11:09;;;;;;;25.50;12.85;;;;;;;21.91;11.37;100736.47;5082618;28;20048;-76
2022/03/20 08:13:36;;;;;;;38.80;18.77;;;;;;;19.56;13.76;100743.13;5086516;28;20032;-76
2022/03/20 08:16:02;;;;;;;22.02;11.93;;;;;;;21.90;11.51;100739.63;5075964;28;20035;-76
2022/03/20 08:18:28;;;;;;;28.58;15.07;;;;;;;21.26;12.23;100740.47;5088265;28;20032;-77
2022/03/20 08:20:54;;;;;;;19.48;10.00;;;;;;;22.55;11.27;100739.06;5089026;28;20037;-77
2022/03/20 08:23:21;;;;;;;17.23;8.23;;;;;;;23.46;10.43;100730.53;5090125;28;20039;-76
2022/03/20 08:25:47;;;;;;;21.08;10.80;;;;;;;21.65;11.53;100740.88;5070091;28;20050;-77
2022/03/20 08:28:13;;;;;;;16.15;8.60;;;;;;;23.04;10.05;100730.34;5068498;28;20052;-76
2022/03/20 08:30:42;;;;;;;15.15;8.43;;;;;;;24.29;9.47;100735.56;5068390;28;20031;-77
2022/03/20 08:33:09;;;;;;;16.70;10.27;;;;;;;21.42;11.22;100737.78;5083443;28;20033;-77
2022/03/20 08:35:35;;;;;;;15.05;8.40;;;;;;;23.07;10.43;100735.22;5083478;28;20048;-78
2022/03/20 08:38:03;;;;;;;16.40;9.57;;;;;;;22.07;10.96;100736.56;5079198;28;20500;-77
2022/03/20 08:40:29;;;;;;;15.65;8.38;;;;;;;21.49;10.73;100737.19;5084345;28;20040;-77
2022/03/20 08:42:56;;;;;;;25.50;13.63;;;;;;;20.26;13.12;100733.81;5085588;28;20020;-77
2022/03/20 08:45:23;;;;;;;21.10;10.80;;;;;;;21.16;12.13;100728.97;5068844;28;20543;-77
2022/03/20 08:47:50;;;;;;;16.95;8.40;;;;;;;22.96;10.23;100720.97;5087913;28;20456;-76
2022/03/20 08:50:18;;;;;;;15.73;7.63;;;;;;;23.20;9.91;100720.72;5081872;28;20100;-77
2022/03/20 08:52:46;;;;;;;18.10;9.35;;;;;;;23.08;9.93;100720.84;5088455;28;20024;-77
2022/03/20 08:55:14;;;;;;;13.23;6.88;;;;;;;23.42;9.73;100716.47;5086417;28;20037;-77
2022/03/20 08:57:48;;;;;;;14.20;7.72;;;;;;;24.26;9.60;100717.47;5081324;28;20107;-77
2022/03/20 09:00:16;;;;;;;13.70;7.38;;;;;;;24.87;8.76;100708.94;5085070;28;20111;-77
2022/03/20 09:02:44;;;;;;;13.05;7.03;;;;;;;25.22;9.07;100714.31;5080331;28;20038;-78
2022/03/20 09:05:12;;;;;;;13.27;7.03;;;;;;;26.02;8.54;100706.19;5078049;28;20040;-76
2022/03/20 09:07:42;;;;;;;15.23;7.97;;;;;;;23.92;9.87;100707.91;5085629;28;20173;-76
2022/03/20 09:10:09;;;;;;;11.00;6.95;;;;;;;24.25;9.74;100715.81;5081363;28;20063;-76
2022/03/20 09:12:38;;;;;;;19.55;10.38;;;;;;;23.52;9.57;100712.28;5085286;28;20024;-77
2022/03/20 09:15:06;;;;;;;14.38;8.68;;;;;;;21.21;11.27;100703.59;5055887;28;20100;-77
2022/03/20 09:20:18;;;;;;;15.10;9.25;;;;;;;20.54;11.44;100704.13;5082272;28;20054;-76
2022/03/20 09:22:44;;;;;;;13.43;6.97;;;;;;;22.76;10.65;100690.41;5089592;28;20101;-77
2022/03/20 09:25:10;;;;;;;14.77;7.43;;;;;;;23.93;9.48;100703.94;5086672;28;20031;-77
2022/03/20 09:27:38;;;;;;;11.50;6.72;;;;;;;24.20;9.04;100693.66;5089600;28;20041;-77
2022/03/20 09:30:05;;;;;;;11.98;6.18;;;;;;;25.01;8.85;100686.69;5096202;28;20485;-77
2022/03/20 09:32:31;;;;;;;11.05;5.75;;;;;;;24.97;8.65;100683.00;5087064;28;20504;-77
2022/03/20 09:34:57;;;;;;;9.65;5.60;;;;;;;26.02;8.46;100685.69;5083036;28;20059;-77
2022/03/20 09:37:23;;;;;;;11.98;6.60;;;;;;;24.23;8.67;100686.50;5088175;28;20028;-76
2022/03/20 09:39:49;;;;;;;9.32;5.10;;;;;;;25.70;8.41;100678.84;5088052;28;20427;-77
2022/03/20 09:42:19;;;;;;;9.95;5.40;;;;;;;26.04;8.12;100681.25;5087147;28;20047;-77
2022/03/20 09:44:46;;;;;;;8.07;4.90;;;;;;;25.87;7.98;100681.06;5082156;28;20044;-77
2022/03/20 09:47:13;;;;;;;8.40;5.20;;;;;;;26.02;7.93;100677.25;5079464;28;20109;-77
2022/03/20 09:49:40;;;;;;;11.43;5.40;;;;;;;26.63;7.82;100674.66;5083243;28;20594;-77
2022/03/20 09:52:07;;;;;;;9.23;5.20;;;;;;;26.88;7.74;100679.72;5081111;28;20028;-77
2022/03/20 09:54:36;;;;;;;15.10;7.60;;;;;;;25.90;8.32;100683.13;5064597;28;21003;-77
2022/03/20 09:57:08;;;;;;;12.07;6.97;;;;;;;25.54;8.46;100681.03;5081914;28;20043;-77
2022/03/20 09:59:37;;;;;;;12.90;6.40;;;;;;;25.68;8.58;100673.59;5093450;28;20393;-77
2022/03/20 10:02:04;;;;;;;11.68;7.20;;;;;;;26.17;8.41;100679.03;5087768;28;20753;-77
2022/03/20 10:04:34;;;;;;;13.80;8.13;;;;;;;25.59;8.49;100677.91;5086911;28;20031;-78
2022/03/20 10:07:00;;;;;;;11.30;6.18;;;;;;;26.00;8.86;100679.59;5078637;28;20028;-77
2022/03/20 10:09:27;;;;;;;13.88;7.57;;;;;;;23.04;10.11;100685.50;5084915;28;20485;-77
2022/03/20 10:11:56;;;;;;;12.60;7.22;;;;;;;22.62;9.90;100683.28;5089434;28;20051;-77
2022/03/20 10:14:24;;;;;;;14.75;7.30;;;;;;;20.71;10.55;100689.13;5080390;28;20024;-77
2022/03/20 10:17:09;;;;;;;14.05;7.47;;;;;;;20.02;11.45;100689.91;5084481;28;20048;-77
2022/03/20 10:19:36;;;;;;;14.80;8.10;;;;;;;19.82;12.17;100697.16;5081876;28;20063;-77
2022/03/20 10:22:04;;;;;;;16.73;9.57;;;;;;;17.73;13.14;100691.63;5087241;28;20119;-78
2022/03/20 10:24:32;;;;;;;17.40;9.90;;;;;;;18.41;13.01;100688.66;5082013;28;20060;-77
2022/03/20 10:27:01;;;;;;;17.15;9.60;;;;;;;19.32;12.36;100694.41;5070112;28;20131;-77
2022/03/20 10:29:34;;;;;;;11.48;7.20;;;;;;;21.44;11.08;100675.94;5088771;28;20081;-77
2022/03/20 10:32:05;;;;;;;15.90;9.00;;;;;;;21.53;10.95;100682.19;5093494;28;20068;-78
2022/03/20 10:34:49;;;;;;;14.75;8.77;;;;;;;22.19;10.71;100674.13;5081513;28;20021;-78
2022/03/20 10:37:17;;;;;;;17.25;10.45;;;;;;;20.58;11.92;100671.56;5085606;28;20041;-77
2022/03/20 10:39:44;;;;;;;18.48;10.38;;;;;;;18.58;13.17;100677.50;5087524;28;20493;-77
2022/03/20 10:42:15;;;;;;;17.65;9.98;;;;;;;18.41;13.94;100685.09;5084698;28;20152;-77
2022/03/20 10:44:42;;;;;;;19.30;11.07;;;;;;;18.91;13.23;100682.41;5084391;28;20476;-78
2022/03/20 10:47:13;;;;;;;21.25;10.90;;;;;;;18.62;13.49;100672.09;5078328;28;20470;-78
2022/03/20 10:49:42;;;;;;;21.23;12.15;;;;;;;18.48;13.62;100672.31;5084357;28;20090;-78
2022/03/20 10:52:11;;;;;;;16.00;9.48;;;;;;;20.48;12.90;100669.22;5077601;28;20094;-78
2022/03/20 10:54:45;;;;;;;16.88;10.30;;;;;;;20.11;11.84;100670.31;5080616;28;20406;-78
2022/03/20 10:57:13;;;;;;;16.67;9.00;;;;;;;20.98;11.97;100661.31;5084544;28;20127;-78
2022/03/20 10:59:40;;;;;;;16.63;9.80;;;;;;;21.64;11.42;100656.16;5079895;28;20044;-78
2022/03/20 11:02:19;;;;;;;17.70;8.25;;;;;;;21.98;11.20;100649.97;5080058;28;20037;-78
2022/03/20 11:04:46;;;;;;;16.30;9.80;;;;;;;21.91;10.51;100635.00;5082243;28;20131;-78
2022/03/20 11:07:16;;;;;;;13.27;7.20;;;;;;;22.52;10.59;100633.38;5080054;28;20039;-78
2022/03/20 11:09:46;;;;;;;13.52;7.93;;;;;;;22.38;10.51;100630.22;5085192;28;20127;-78
2022/03/20 11:12:35;;;;;;;15.77;8.30;;;;;;;22.88;10.21;100642.69;5081977;28;20512;-77
2022/03/20 11:15:06;;;;;;;16.48;8.43;;;;;;;22.35;10.34;100630.16;5083760;28;20044;-78
2022/03/20 11:17:46;;;;;;;13.32;7.63;;;;;;;22.97;9.57;100623.69;5086142;28;20039;-77
2022/03/20 11:20:17;;;;;;;10.43;6.40;;;;;;;22.30;10.43;100617.25;5089652;28;20062;-80
2022/03/20 11:22:50;;;;;;;15.75;8.05;;;;;;;19.65;11.77;100616.47;5089671;28;20028;-78
2022/03/20 11:25:21;;;;;;;11.02;6.32;;;;;;;21.47;10.89;100619.31;5092531;28;20102;-79
2022/03/20 11:27:59;;;;;;;11.05;6.70;;;;;;;23.26;9.58;100609.97;5072453;28;20052;-78
2022/03/20 11:30:30;;;;;;;13.40;7.80;;;;;;;19.11;11.75;100609.25;5088905;28;20111;-78
2022/03/20 11:33:00;;;;;;;14.63;7.93;;;;;;;18.62;12.91;100616.47;5091273;28;20052;-79
2022/03/20 11:35:30;;;;;;;12.77;7.85;;;;;;;18.60;12.77;100615.97;5084204;28;20088;-78
2022/03/20 11:38:10;;;;;;;14.95;8.02;;;;;;;19.25;12.60;100607.00;5089024;28;20028;-78
2022/03/20 11:40:41;;;;;;;12.93;7.45;;;;;;;18.87;12.11;100612.69;5082600;28;20066;-79
2022/03/20 11:43:22;;;;;;;15.17;6.93;;;;;;;21.83;10.58;100594.78;5083280;28;20409;-79
2022/03/20 11:46:11;;;;;;;13.23;7.60;;;;;;;23.21;9.03;100596.22;5052283;28;20364;-78